Station: Croker Island Airport

  Atmospheric Gas Attenuation - ITU Rec 676-11   --------------- db/100km ---------------
Date Time Temp RH % AH g/m3 Dew Point Wind Direction Speed kph Gust kph Barometer mB Rainfall Since 9am 24GHz 47GHz 76GHz 122GHz 134GHz 241GHz
07 07:40 24 87 18.93 21.7 7 11 1013.1 0 40.9 40.4 77.9 206.0 226.7 787.3
07 07:30 23.9 89 19.25 22 9 11 1012.2 0 41.6 41.0 79.5 210.2 231.9 805.3
07 07:20 23.7 90 19.25 21.9 7 9 1013.1 0 41.6 41.2 79.7 210.9 232.7 808.0
07 07:10 23.7 90 19.25 21.9 7 7 1013.1 0 41.6 41.2 79.7 210.9 232.7 808.0
07 07:00 23.6 90 19.14 21.9 6 11 1012 0 41.4 40.9 79.2 209.6 231.1 802.4
07 06:50 23.6 91 19.35 22 6 7 1013.1 0 41.9 41.4 80.3 212.5 234.6 814.6
07 06:40 23.7 90 19.25 21.9 6 6 1013.1 0 41.6 41.2 79.7 210.9 232.7 808.0
07 06:30 23.7 91 19.46 22.1 6 7 1011.7 0 42.1 41.5 80.7 213.4 235.8 818.8
07 06:20 23.6 90 19.14 21.8 6 7 1013.1 0 41.4 41.0 79.3 209.8 231.2 803.0
07 06:10 23.6 90 19.14 21.8 6 7 1013.1 0 41.4 41.0 79.3 209.8 231.2 803.0
07 06:00 23.7 90 19.25 22 7 9 1011.3 0 41.6 41.1 79.6 210.6 232.4 807.0
07 05:50 23.7 91 19.46 22.1 7 9 1013.1 0 42.1 41.6 80.8 213.7 236.0 819.6
07 05:40 23.6 91 19.35 22 6 7 1013.1 0 41.9 41.4 80.3 212.5 234.6 814.6
07 05:30 23.7 91 19.46 22.1 7 11 1011 0 42.1 41.5 80.6 213.3 235.7 818.4
07 05:20 23.7 92 19.68 22.3 7 9 1013.1 0 42.6 42.0 81.8 216.5 239.5 831.8
07 05:10 23.6 92 19.57 22.2 7 9 1013.1 0 42.3 41.8 81.4 215.4 238.1 826.8
07 04:50 23.5 92 19.45 22.1 9 11 1013.1 0 42.1 41.6 80.9 214.1 236.5 821.2
07 04:40 23.4 92 19.34 22 7 9 1013.1 0 41.9 41.5 80.5 213.0 235.0 816.2
07 04:30 23.3 92 19.23 21.9 6 7 1010.7 0 41.6 41.2 79.9 211.4 233.2 809.9
07 04:20 23.4 93 19.55 22.2 6 7 1013.1 0 42.3 41.9 81.5 215.7 238.4 827.9
07 04:10 23.4 93 19.55 22.2 2 4 1013.1 0 42.3 41.9 81.5 215.7 238.4 827.9
07 04:00 23.3 92 19.23 21.9 2 4 1010.6 0 41.7 41.2 79.9 211.4 233.2 809.8
07 03:50 21.9 89 17.17 20 2 2 1013.1 0 37.4 38.0 71.6 189.2 205.5 713.1
07 03:40 21.6 88 16.69 19.5 4 4 1013.1 0 36.4 37.2 69.6 184.0 198.9 690.3
07 03:30 21.6 87 16.5 19.3 2 6 1010.6 0 36.0 36.8 68.6 181.3 195.7 679.0
07 03:20 21.8 87 16.69 19.5 0 0 1013.1 0 36.4 37.2 69.4 183.5 198.4 688.4
07 03:10 22.7 88 17.78 20.6 0 0 1013.1 0 38.6 38.8 73.7 194.9 212.6 738.2
07 03:00 23.2 88 18.29 21.1 0 0 1010.7 0 39.6 39.4 75.5 199.6 218.7 759.5
07 02:50 23.9 88 19.04 21.9 0 0 1013.1 0 41.2 40.6 78.5 207.7 228.7 794.3
07 02:40 24 88 19.14 22 4 4 1013.1 0 41.4 40.8 78.9 208.7 230.0 798.7
07 02:30 24 89 19.36 22.1 4 6 1011 0 41.8 41.1 79.8 211.2 233.1 809.6
07 02:20 24 87 18.93 21.8 4 4 1013.1 0 40.9 40.4 77.9 206.0 226.7 787.3
07 02:10 24 87 18.93 21.8 2 2 1013.1 0 40.9 40.4 77.9 206.0 226.7 787.3
07 02:00 24 88 19.14 21.9 4 6 1011.2 0 41.4 40.7 78.8 208.4 229.7 797.7
07 01:50 24 87 18.93 21.8 6 6 1013.1 0 40.9 40.4 77.9 206.0 226.7 787.3
07 01:40 24.2 87 19.14 22 2 2 1013.1 0 41.3 40.7 78.7 208.1 229.4 796.6
07 01:30 24.1 88 19.25 22 4 6 1011.6 0 41.6 40.9 79.2 209.6 231.2 802.9
07 01:20 24 87 18.93 21.7 4 4 1013.1 0 40.9 40.4 77.9 206.0 226.7 787.3
07 01:10 24 86 18.71 21.5 4 6 1013.1 0 40.4 40.0 76.8 203.2 223.3 775.3
07 01:00 24 86 18.71 21.5 6 6 1012 0 40.5 39.9 76.8 203.0 223.1 774.7
07 00:50 24.1 85 18.6 21.4 4 4 1013.1 0 40.2 39.7 76.2 201.5 221.3 768.4
07 00:40 24.1 85 18.6 21.4 4 4 1013.1 0 40.2 39.7 76.2 201.5 221.3 768.4
07 00:30 24.2 84 18.48 21.3 4 6 1012.3 0 39.9 39.4 75.5 199.6 219.0 760.5
07 00:20 24.4 84 18.69 21.5 4 4 1013.1 0 40.4 39.7 76.3 201.9 221.8 770.1
07 00:10 24.4 82 18.25 21.1 6 6 1013.1 0 39.4 38.9 74.3 196.4 215.0 746.6
07 00:00 24.7 82 18.56 21.4 6 7 1012.4 0 40.1 39.3 75.4 199.3 218.8 759.8
06 23:50 24.8 82 18.66 21.5 6 7 1013.1 0 40.3 39.5 75.8 200.4 220.1 764.5
06 23:40 24.8 82 18.66 21.5 7 7 1013.1 0 40.3 39.5 75.8 200.4 220.1 764.5
06 23:30 24.9 81 18.54 21.4 6 9 1012.4 0 40.0 39.2 75.1 198.6 217.9 756.7
06 23:20 25 81 18.65 21.5 6 7 1013.1 0 40.2 39.4 75.5 199.8 219.4 761.9
06 23:10 24.9 80 18.31 21.2 9 11 1013.1 0 39.5 38.8 74.0 195.8 214.5 744.9
06 23:00 24.7 78 17.65 20.6 6 9 1012.2 0 38.1 37.6 71.1 188.1 204.9 711.7
06 22:50 24.8 79 17.98 20.9 4 6 1013.1 0 38.8 38.2 72.6 192.0 209.8 728.5
06 22:40 24.8 79 17.98 20.9 6 7 1013.1 0 38.8 38.2 72.6 192.0 209.8 728.5
06 22:30 24.9 80 18.31 21.2 7 11 1012.2 0 39.5 38.7 74.0 195.7 214.3 744.4
06 22:20 24.9 79 18.08 21 7 9 1013.1 0 39.0 38.4 73.0 193.0 211.0 732.8
06 22:10 25 80 18.42 21.3 7 9 1013.1 0 39.7 38.9 74.5 196.9 215.9 749.7
06 22:00 25 80 18.42 21.3 9 15 1012 0 39.7 38.9 74.4 196.8 215.7 749.1
06 21:50 25 81 18.65 21.5 9 11 1013.1 0 40.2 39.4 75.5 199.8 219.4 761.9
06 21:40 25.1 80 18.52 21.4 11 15 1013.1 0 39.9 39.1 74.8 197.9 217.1 754.0
06 21:30 25.2 79 18.39 21.3 11 17 1011.6 0 39.7 38.7 74.0 195.8 214.6 745.4
06 21:20 25.2 80 18.62 21.5 7 9 1013.1 0 40.1 39.2 75.2 198.9 218.3 758.3
06 21:10 25.2 80 18.62 21.5 9 11 1013.1 0 40.1 39.2 75.2 198.9 218.3 758.3
06 21:00 25.2 79 18.39 21.3 9 15 1011.3 0 39.7 38.7 74.0 195.8 214.6 745.2
06 20:50 25.3 79 18.49 21.4 9 13 1013.1 0 39.8 38.9 74.5 197.0 216.1 750.4
06 20:40 25.2 79 18.39 21.3 11 13 1013.1 0 39.6 38.8 74.1 196.0 214.8 746.2
06 20:30 25.2 79 18.39 21.3 9 17 1011 0 39.7 38.7 74.0 195.7 214.5 745.1
06 20:20 25.2 80 18.62 21.5 13 15 1013.1 0 40.1 39.2 75.2 198.9 218.3 758.3
06 20:10 25.4 80 18.83 21.7 15 17 1013.1 0 40.6 39.5 76.0 201.0 220.9 767.5
06 20:00 25.5 79 18.7 21.6 9 15 1010.6 0 40.3 39.1 75.1 198.7 218.3 758.3
06 19:50 25.4 75 17.66 20.8 9 11 1013.1 0 38.1 37.4 70.6 186.6 203.3 706.1
06 19:40 25.4 75 17.66 20.6 9 11 1013.1 0 38.1 37.4 70.6 186.6 203.3 706.1
06 19:30 25.5 74 17.52 20.5 7 11 1010.3 0 37.8 36.9 69.7 184.3 200.6 696.6
06 19:20 25.6 70 16.67 19.9 6 7 1013.1 0 36.0 35.5 66.0 174.4 188.3 654.0
06 19:10 25.5 71 16.81 20 7 9 1013.1 0 36.3 35.8 66.7 176.2 190.6 661.9
06 19:00 25.7 72 17.24 20.3 7 13 1010.2 0 37.2 36.3 68.2 180.4 195.9 680.5
06 18:50 25.6 71 16.9 20.1 7 7 1013.1 0 36.4 35.9 67.0 177.1 191.7 665.5
06 18:40 25.9 71 17.19 20.4 7 9 1013.1 0 37.0 36.3 68.0 179.8 195.1 677.6
06 18:30 26.1 69 16.89 20 7 11 1010 0 36.4 35.5 66.3 175.4 189.8 659.3
06 18:20 26.5 68 17.02 20.3 7 9 1013.1 0 36.6 35.7 66.7 176.4 191.1 663.8
06 18:10 26.7 66 16.71 19.8 7 9 1013.1 0 35.9 35.1 65.2 172.4 186.2 646.7
06 18:00 26.8 67 17.05 20.2 9 13 1009.7 0 36.7 35.5 66.4 175.6 190.3 661.1
06 17:50 27.1 64 16.56 19.9 9 13 1013.1 0 35.6 34.7 64.2 169.8 183.1 636.0
06 17:40 27.5 65 17.2 20.3 11 13 1013.1 0 36.9 35.6 66.7 176.2 191.2 664.1
06 17:30 27.8 66 17.75 20.9 7 11 1009.7 0 38.1 36.3 68.6 181.4 197.8 687.2
06 17:20 27.2 67 17.44 20.7 9 13 1013.1 0 37.4 36.2 68.0 179.7 195.4 678.7
06 17:10 27.6 67 17.83 20.9 9 13 1013.1 0 38.2 36.7 69.3 183.3 199.9 694.7
06 17:00 27.9 67 18.12 21.2 9 17 1009.7 0 38.8 36.9 70.1 185.5 202.9 704.9
06 16:50 27.9 65 17.58 20.7 13 17 1013.1 0 37.7 36.1 68.0 179.7 195.6 679.5
06 16:40 27.7 65 17.39 20.7 9 11 1013.1 0 37.3 35.9 67.3 178.0 193.4 671.8
06 16:30 28 67 18.22 21.3 11 17 1009.6 0 39.0 37.1 70.5 186.5 204.0 708.9
06 16:20 28.1 65 17.78 20.9 11 15 1013.1 0 38.1 36.4 68.7 181.6 197.9 687.7
06 16:10 28 65 17.68 21 11 13 1013.1 0 37.9 36.3 68.3 180.6 196.7 683.6
06 16:00 28.2 65 17.87 21 11 17 1009.5 0 38.3 36.4 68.8 181.9 198.4 689.5
06 15:50 27.9 65 17.58 20.9 9 11 1013.1 0 37.7 36.1 68.0 179.7 195.6 679.5
06 15:40 27.1 69 17.86 20.9 11 15 1013.1 0 38.3 37.0 69.9 184.9 201.7 700.7
06 15:30 27.6 66 17.56 20.7 13 17 1009.6 0 37.7 36.1 67.9 179.7 195.6 679.5
06 15:20 28.5 64 17.89 21 11 15 1013.1 0 38.3 36.4 68.8 181.9 198.4 689.6
06 15:10 28.1 65 17.78 21.1 17 19 1013.1 0 38.1 36.4 68.7 181.6 197.9 687.7
06 15:00 28.4 66 18.35 21.4 15 20 1009.7 0 39.3 37.1 70.7 187.0 204.8 711.8

Last Refresh: 07-Aug-2020 07:48:46

Most of the information presented on this site is sourced from the Bureau of Meteorology.  Copyright in all material sourced from the Bureau of Meteorology resides with the Commonwealth of Australia.